createdAt,value
2018-06-23T00:01:54.685Z,12.80
2018-06-23T00:04:22.806Z,12.70
2018-06-23T00:09:18.634Z,12.60
2018-06-23T00:11:46.872Z,12.70
2018-06-23T00:14:16.662Z,12.70
2018-06-23T00:19:13.026Z,12.80
2018-06-23T00:21:41.056Z,12.90
2018-06-23T00:24:09.213Z,13.00
2018-06-23T00:26:37.241Z,13.00
2018-06-23T00:29:05.277Z,13.00
2018-06-23T00:31:33.311Z,13.10
2018-06-23T00:34:01.346Z,13.10
2018-06-23T00:36:29.397Z,13.10
2018-06-23T00:38:57.410Z,13.10
2018-06-23T00:41:25.466Z,13.10
2018-06-23T00:43:53.486Z,13.00
2018-06-23T00:46:21.522Z,12.90
2018-06-23T00:48:49.573Z,12.90
2018-06-23T00:51:17.600Z,12.90
2018-06-23T00:53:45.617Z,12.90
2018-06-23T00:56:13.661Z,12.80
2018-06-23T01:01:09.486Z,12.70
2018-06-23T01:03:37.524Z,12.70
2018-06-23T01:06:05.573Z,12.80
2018-06-23T01:08:33.667Z,12.70
2018-06-23T01:11:01.698Z,12.70
2018-06-23T01:13:29.705Z,12.70
2018-06-23T01:15:57.746Z,12.60
2018-06-23T01:18:25.775Z,12.60
2018-06-23T01:20:53.814Z,12.70
2018-06-23T01:23:21.882Z,12.60
2018-06-23T01:25:49.929Z,12.70
2018-06-23T01:28:17.938Z,12.70
2018-06-23T01:30:45.965Z,12.80
2018-06-23T01:33:13.977Z,12.70
2018-06-23T01:35:42.019Z,12.70
2018-06-23T01:38:10.042Z,12.80
2018-06-23T01:40:38.085Z,12.70
2018-06-23T01:43:06.122Z,12.80
2018-06-23T01:45:34.142Z,12.70
2018-06-23T01:48:02.196Z,12.70
2018-06-23T01:50:30.204Z,12.70
2018-06-23T01:52:58.243Z,12.70
2018-06-23T01:55:26.314Z,12.70
2018-06-23T01:57:54.371Z,12.70
2018-06-23T02:02:50.169Z,12.70
2018-06-23T02:05:18.193Z,12.80
2018-06-23T02:07:46.253Z,12.80
2018-06-23T02:10:14.272Z,12.80
2018-06-23T02:12:42.319Z,12.80
2018-06-23T02:15:11.082Z,12.80
2018-06-23T02:17:44.637Z,12.80
2018-06-23T02:20:18.362Z,12.80
2018-06-23T02:25:25.540Z,12.90
2018-06-23T02:27:59.169Z,12.90
2018-06-23T02:30:34.450Z,12.80
2018-06-23T02:33:07.877Z,12.70
2018-06-23T02:35:35.902Z,12.70
2018-06-23T02:38:03.945Z,12.60
2018-06-23T02:40:32.111Z,12.60
2018-06-23T02:43:00.123Z,12.60
2018-06-23T02:45:28.142Z,12.60
2018-06-23T02:47:56.186Z,12.60
2018-06-23T02:50:24.214Z,12.50
2018-06-23T02:52:52.256Z,12.50
2018-06-23T02:55:20.279Z,12.40
2018-06-23T02:57:48.309Z,12.40
2018-06-23T03:02:44.174Z,12.40
2018-06-23T03:05:12.169Z,12.50
2018-06-23T03:07:40.246Z,12.50
2018-06-23T03:10:08.293Z,12.50
2018-06-23T03:12:36.337Z,12.40
2018-06-23T03:15:04.407Z,12.40
2018-06-23T03:17:32.428Z,12.40
2018-06-23T03:20:00.469Z,12.40
2018-06-23T03:22:28.524Z,12.30
2018-06-23T03:24:56.542Z,12.30
2018-06-23T03:27:24.626Z,12.30
2018-06-23T03:29:52.650Z,12.30
2018-06-23T03:32:20.761Z,12.30
2018-06-23T03:34:48.778Z,12.30
2018-06-23T03:37:16.797Z,12.30
2018-06-23T03:39:44.846Z,12.30
2018-06-23T03:42:12.874Z,12.30
2018-06-23T03:44:41.020Z,12.20
2018-06-23T03:47:09.036Z,12.20
2018-06-23T03:49:37.089Z,12.20
2018-06-23T03:52:05.106Z,12.20
2018-06-23T03:54:33.215Z,12.20
2018-06-23T03:57:01.307Z,12.30
2018-06-23T03:59:29.344Z,12.40
2018-06-23T04:01:57.444Z,12.40
2018-06-23T04:04:25.533Z,12.50
2018-06-23T04:06:53.559Z,12.60
2018-06-23T04:09:21.617Z,12.50
2018-06-23T04:11:49.630Z,12.60
2018-06-23T04:14:17.672Z,12.50
2018-06-23T04:16:45.697Z,12.50
2018-06-23T04:19:13.742Z,12.40
2018-06-23T04:21:41.790Z,12.40
2018-06-23T04:24:09.812Z,12.40
2018-06-23T04:26:37.845Z,12.50
2018-06-23T04:29:05.880Z,12.60
2018-06-23T04:34:01.770Z,12.60
2018-06-23T04:36:29.813Z,12.70
2018-06-23T04:38:57.869Z,12.70
2018-06-23T04:41:26.078Z,12.70
2018-06-23T04:43:54.133Z,12.70
2018-06-23T04:46:22.149Z,12.70
2018-06-23T04:48:50.223Z,12.70
2018-06-23T04:51:18.269Z,12.60
2018-06-23T04:53:47.502Z,12.70
2018-06-23T04:56:16.067Z,12.70
2018-06-23T04:58:44.116Z,12.80
2018-06-23T05:01:12.308Z,12.70
2018-06-23T05:03:40.530Z,12.70
2018-06-23T05:08:37.466Z,12.80
2018-06-23T05:11:05.533Z,12.60
2018-06-23T05:13:33.716Z,12.60
2018-06-23T05:16:01.748Z,12.70
2018-06-23T05:18:29.808Z,12.70
2018-06-23T05:20:57.822Z,12.70
2018-06-23T05:23:25.880Z,12.60
2018-06-23T05:25:53.949Z,12.80
2018-06-23T05:28:21.937Z,12.90
2018-06-23T05:30:49.978Z,12.90
2018-06-23T05:33:19.097Z,12.90
2018-06-23T05:35:47.125Z,13.00
2018-06-23T05:38:15.151Z,13.00
2018-06-23T05:40:43.208Z,13.10
2018-06-23T05:43:11.254Z,13.00
2018-06-23T05:45:39.471Z,13.00
2018-06-23T05:48:07.499Z,13.00
2018-06-23T05:50:35.549Z,13.00
2018-06-23T05:53:03.594Z,13.10
2018-06-23T05:55:31.624Z,13.20
2018-06-23T05:57:59.649Z,13.30
2018-06-23T06:00:27.689Z,13.30
2018-06-23T06:02:55.726Z,13.40
2018-06-23T06:05:23.766Z,13.50
2018-06-23T06:07:51.813Z,13.60
2018-06-23T06:10:19.848Z,13.70
2018-06-23T06:12:47.898Z,13.70
2018-06-23T06:15:16.033Z,13.80
2018-06-23T06:17:44.033Z,13.50
2018-06-23T06:20:14.181Z,13.50
2018-06-23T06:22:44.777Z,13.40
2018-06-23T06:25:13.466Z,13.60
2018-06-23T06:27:41.617Z,13.70
2018-06-23T06:30:10.556Z,13.80
2018-06-23T06:32:38.814Z,13.80
2018-06-23T06:35:07.138Z,13.80
2018-06-23T06:37:35.238Z,14.00
2018-06-23T06:40:03.310Z,14.00
2018-06-23T06:42:31.334Z,13.90
2018-06-23T06:44:59.390Z,14.10
2018-06-23T06:49:55.263Z,13.90
2018-06-23T06:52:23.289Z,13.80
2018-06-23T06:57:19.582Z,13.50
2018-06-23T06:59:47.648Z,13.20
2018-06-23T07:02:15.686Z,12.90
2018-06-23T07:04:43.827Z,12.50
2018-06-23T07:07:11.874Z,12.30
2018-06-23T07:09:39.982Z,12.40
2018-06-23T07:12:08.003Z,12.40
2018-06-23T07:14:36.018Z,12.40
2018-06-23T07:17:04.061Z,12.30
2018-06-23T07:19:32.077Z,12.30
2018-06-23T07:22:00.167Z,12.50
2018-06-23T07:24:28.202Z,12.70
2018-06-23T07:26:56.350Z,12.90
2018-06-23T07:29:24.281Z,13.10
2018-06-23T07:31:52.328Z,13.10
2018-06-23T07:34:20.366Z,13.00
2018-06-23T07:36:49.070Z,13.10
2018-06-23T07:39:17.258Z,13.10
2018-06-23T07:41:45.294Z,13.10
2018-06-23T07:44:13.312Z,13.10
2018-06-23T07:46:41.470Z,13.10
2018-06-23T07:49:09.494Z,13.20
2018-06-23T07:51:37.521Z,13.30
2018-06-23T07:54:05.545Z,13.40
2018-06-23T07:56:33.596Z,13.50
2018-06-23T07:59:01.603Z,13.50
2018-06-23T08:01:29.707Z,13.60
2018-06-23T08:03:57.703Z,13.50
2018-06-23T08:06:25.844Z,13.50
2018-06-23T08:08:53.853Z,13.50
2018-06-23T08:11:21.938Z,13.70
2018-06-23T08:13:50.032Z,13.80
2018-06-23T08:16:18.093Z,14.00
2018-06-23T08:18:46.118Z,14.10
2018-06-23T08:21:14.157Z,14.10
2018-06-23T08:23:42.189Z,14.10
2018-06-23T08:26:10.927Z,14.00
2018-06-23T08:28:38.954Z,13.80
2018-06-23T08:31:07.394Z,13.70
2018-06-23T08:33:36.039Z,13.80
2018-06-23T08:36:04.076Z,13.80
2018-06-23T08:38:32.192Z,13.80
2018-06-23T08:41:00.290Z,13.90
2018-06-23T08:43:28.322Z,14.00
2018-06-23T08:45:56.354Z,14.00
2018-06-23T08:48:24.394Z,14.10
2018-06-23T08:50:52.446Z,14.30
2018-06-23T08:53:20.473Z,14.50
2018-06-23T08:55:48.606Z,14.70
2018-06-23T08:58:16.678Z,14.80
2018-06-23T09:00:44.698Z,15.00
2018-06-23T09:03:12.733Z,15.20
2018-06-23T09:05:40.879Z,15.30
2018-06-23T09:08:08.995Z,15.50
2018-06-23T09:10:37.013Z,15.50
2018-06-23T09:15:32.859Z,15.30
2018-06-23T09:18:00.946Z,15.50
2018-06-23T09:20:28.962Z,15.50
2018-06-23T09:22:57.083Z,15.60
2018-06-23T09:25:25.109Z,15.80
2018-06-23T09:27:53.155Z,15.90
2018-06-23T09:30:21.171Z,16.00
2018-06-23T09:32:49.241Z,16.40
2018-06-23T09:35:17.337Z,16.50
2018-06-23T09:37:45.387Z,16.90
2018-06-23T09:40:13.410Z,17.10
2018-06-23T09:42:41.470Z,17.30
2018-06-23T09:45:09.517Z,17.30
2018-06-23T09:47:37.553Z,17.50
2018-06-23T09:50:05.565Z,17.40
2018-06-23T09:52:33.610Z,17.10
2018-06-23T09:55:01.729Z,16.70
2018-06-23T09:57:29.839Z,16.40
2018-06-23T09:59:57.874Z,16.10
2018-06-23T10:02:25.954Z,15.80
2018-06-23T10:04:53.972Z,15.60
2018-06-23T10:07:22.027Z,15.60
2018-06-23T10:09:50.144Z,15.80
2018-06-23T10:12:18.193Z,16.30
2018-06-23T10:14:46.375Z,16.60
2018-06-23T10:17:14.598Z,17.00
2018-06-23T10:19:42.645Z,17.30
2018-06-23T10:22:10.808Z,17.60
2018-06-23T10:24:45.464Z,17.90
2018-06-23T10:27:13.530Z,18.20
2018-06-23T10:29:41.593Z,18.60
2018-06-23T10:32:09.661Z,18.80
2018-06-23T10:34:37.733Z,18.70
2018-06-23T10:37:05.782Z,18.50
2018-06-23T10:39:33.920Z,18.20
2018-06-23T10:42:02.285Z,17.90
2018-06-23T10:44:30.399Z,17.80
2018-06-23T10:46:58.433Z,17.40
2018-06-23T10:49:26.476Z,17.60
2018-06-23T10:51:54.559Z,17.60
2018-06-23T10:54:22.592Z,18.00
2018-06-23T10:59:18.456Z,18.20
2018-06-23T11:01:46.530Z,18.50
2018-06-23T11:04:14.590Z,18.80
2018-06-23T11:06:42.633Z,19.00
2018-06-23T11:09:10.749Z,19.10
2018-06-23T11:11:38.948Z,19.00
2018-06-23T11:14:06.994Z,19.10
2018-06-23T11:16:35.037Z,19.10
2018-06-23T11:19:03.590Z,19.10
2018-06-23T11:21:31.621Z,18.60
2018-06-23T11:23:59.810Z,18.40
2018-06-23T11:26:27.832Z,18.30
2018-06-23T11:28:56.022Z,18.30
2018-06-23T11:31:24.053Z,18.60
2018-06-23T11:33:52.176Z,18.70
2018-06-23T11:36:20.209Z,18.90
2018-06-23T11:38:48.359Z,19.30
2018-06-23T11:41:16.453Z,19.20
2018-06-23T11:43:44.784Z,19.10
2018-06-23T11:46:13.056Z,18.90
2018-06-23T11:48:41.475Z,19.00
2018-06-23T11:51:09.494Z,18.90
2018-06-23T11:53:37.589Z,19.00
2018-06-23T11:56:05.688Z,18.90
2018-06-23T11:58:33.709Z,19.10
2018-06-23T12:01:01.782Z,19.30
2018-06-23T12:03:29.979Z,19.60
2018-06-23T12:05:58.078Z,19.40
2018-06-23T12:08:26.100Z,19.50
2018-06-23T12:10:54.190Z,19.70
2018-06-23T12:13:22.266Z,19.40
2018-06-23T12:15:50.265Z,19.80
2018-06-23T12:18:18.408Z,19.80
2018-06-23T12:20:46.478Z,20.00
2018-06-23T12:23:14.530Z,21.10
2018-06-23T12:33:06.053Z,20.60
2018-06-23T12:35:34.094Z,22.20
2018-06-23T12:38:02.153Z,23.30
2018-06-23T12:40:30.258Z,23.80
2018-06-23T12:42:58.280Z,23.10
2018-06-23T12:45:26.316Z,21.80
2018-06-23T12:47:54.336Z,21.30
2018-06-23T12:50:22.410Z,20.70
2018-06-23T12:52:50.402Z,20.40
2018-06-23T12:55:18.570Z,19.70
2018-06-23T12:57:46.603Z,19.50
2018-06-23T13:00:14.625Z,19.70
2018-06-23T13:02:42.681Z,20.00
2018-06-23T13:05:10.718Z,20.30
2018-06-23T13:07:38.813Z,22.10
2018-06-23T13:10:06.788Z,24.20
2018-06-23T13:12:34.818Z,26.30
2018-06-23T13:15:02.940Z,26.60
2018-06-23T13:17:30.925Z,26.20
2018-06-23T13:19:58.965Z,24.00
2018-06-23T13:22:27.050Z,23.20
2018-06-23T13:24:55.013Z,21.60
2018-06-23T13:27:23.105Z,20.20
2018-06-23T13:29:51.177Z,19.10
2018-06-23T13:32:19.222Z,18.70
2018-06-23T13:34:47.350Z,18.10
2018-06-23T13:37:15.400Z,17.40
2018-06-23T13:39:43.434Z,17.00
2018-06-23T13:44:39.219Z,16.60
2018-06-23T13:47:07.271Z,16.40
2018-06-23T13:49:35.380Z,16.60
2018-06-23T13:52:03.379Z,16.80
2018-06-23T13:54:31.438Z,17.50
2018-06-23T13:56:59.490Z,19.60
2018-06-23T13:59:27.574Z,21.60
2018-06-23T14:01:55.741Z,22.60
2018-06-23T14:04:23.746Z,21.80
2018-06-23T14:06:51.780Z,20.80
2018-06-23T14:09:19.822Z,20.50
2018-06-23T14:11:47.845Z,20.30
2018-06-23T14:14:15.893Z,19.90
2018-06-23T14:16:44.046Z,19.50
2018-06-23T14:19:12.117Z,20.00
2018-06-23T14:21:40.204Z,20.00
2018-06-23T14:24:08.258Z,19.30
2018-06-23T14:26:36.359Z,18.50
2018-06-23T14:29:04.401Z,18.10
2018-06-23T14:31:32.570Z,17.80
2018-06-23T14:34:00.485Z,17.30
2018-06-23T14:36:28.509Z,17.20
2018-06-23T14:38:56.553Z,17.10
2018-06-23T14:43:52.461Z,16.90
2018-06-23T14:46:20.605Z,17.10
2018-06-23T14:48:48.618Z,17.00
2018-06-23T14:51:16.747Z,16.80
2018-06-23T14:53:44.765Z,16.90
2018-06-23T14:56:12.797Z,16.90
2018-06-23T14:58:41.045Z,16.90
2018-06-23T15:01:08.987Z,16.70
2018-06-23T15:03:36.997Z,16.50
2018-06-23T15:06:05.839Z,16.10
2018-06-23T15:08:39.632Z,15.80
2018-06-23T15:11:13.341Z,15.70
2018-06-23T15:13:41.369Z,15.50
2018-06-23T15:16:09.450Z,15.40
2018-06-23T15:18:37.642Z,15.40
2018-06-23T15:21:05.716Z,15.40
2018-06-23T15:23:33.825Z,15.40
2018-06-23T15:26:01.873Z,15.50
2018-06-23T15:28:29.895Z,15.50
2018-06-23T15:30:58.018Z,15.60
2018-06-23T15:33:26.027Z,15.70
2018-06-23T15:35:54.058Z,15.50
2018-06-23T15:38:22.078Z,15.40
2018-06-23T15:45:45.755Z,15.30
2018-06-23T15:48:13.772Z,15.30
2018-06-23T15:50:41.813Z,15.40
2018-06-23T15:55:37.665Z,15.20
2018-06-23T15:58:05.701Z,15.10
2018-06-23T16:00:33.758Z,15.00
2018-06-23T16:03:01.814Z,15.10
2018-06-23T16:05:29.859Z,15.10
2018-06-23T16:07:57.905Z,15.10
2018-06-23T16:10:26.147Z,15.10
2018-06-23T16:12:54.842Z,15.10
2018-06-23T16:15:23.014Z,15.10
2018-06-23T16:17:51.084Z,15.20
2018-06-23T16:20:19.115Z,15.30
2018-06-23T16:22:47.642Z,15.30
2018-06-23T16:25:15.996Z,15.40
2018-06-23T16:27:44.034Z,15.40
2018-06-23T16:30:12.071Z,15.40
2018-06-23T16:32:40.235Z,15.50
2018-06-23T16:35:08.461Z,15.50
2018-06-23T16:37:36.325Z,15.50
2018-06-23T16:42:32.731Z,15.60
2018-06-23T16:45:00.937Z,15.50
2018-06-23T16:47:29.283Z,15.40
2018-06-23T16:49:57.313Z,15.30
2018-06-23T16:52:25.371Z,15.30
2018-06-23T16:54:53.406Z,15.20
2018-06-23T16:57:21.446Z,14.90
2018-06-23T16:59:49.478Z,14.60
2018-06-23T17:02:17.720Z,14.40
2018-06-23T17:04:45.755Z,14.20
2018-06-23T17:07:13.910Z,14.00
2018-06-23T17:09:41.958Z,14.00
2018-06-23T17:12:10.029Z,14.00
2018-06-23T17:14:38.050Z,14.00
2018-06-23T17:17:06.329Z,14.10
2018-06-23T17:19:34.367Z,14.10
2018-06-23T17:22:02.391Z,14.20
2018-06-23T17:24:30.449Z,14.30
2018-06-23T17:26:58.490Z,14.40
2018-06-23T17:29:26.509Z,14.40
2018-06-23T17:31:54.545Z,14.50
2018-06-23T17:34:22.633Z,14.50
2018-06-23T17:36:50.657Z,14.50
2018-06-23T17:39:18.702Z,14.60
2018-06-23T17:41:46.807Z,14.60
2018-06-23T17:44:14.798Z,14.70
2018-06-23T17:46:42.890Z,14.80
2018-06-23T17:49:10.914Z,14.80
2018-06-23T17:51:39.027Z,14.90
2018-06-23T17:54:07.000Z,14.90
2018-06-23T17:56:35.077Z,14.90
2018-06-23T17:59:03.184Z,14.90
2018-06-23T18:01:31.225Z,14.90
2018-06-23T18:03:59.295Z,14.80
2018-06-23T18:06:27.486Z,14.70
2018-06-23T18:08:55.450Z,14.60
2018-06-23T18:11:23.634Z,14.70
2018-06-23T18:13:51.863Z,14.70
2018-06-23T18:18:47.738Z,14.60
2018-06-23T18:21:15.757Z,14.60
2018-06-23T18:23:43.898Z,14.50
2018-06-23T18:26:12.015Z,14.40
2018-06-23T18:28:39.973Z,14.40
2018-06-23T18:31:08.023Z,14.30
2018-06-23T18:33:36.126Z,14.30
2018-06-23T18:36:04.218Z,14.30
2018-06-23T18:38:32.325Z,14.30
2018-06-23T18:41:00.448Z,14.20
2018-06-23T18:45:56.297Z,14.10
2018-06-23T18:48:24.365Z,13.90
2018-06-23T18:50:52.417Z,13.70
2018-06-23T18:53:20.457Z,13.60
2018-06-23T18:55:48.469Z,13.50
2018-06-23T18:58:16.602Z,13.50
2018-06-23T19:00:44.662Z,13.50
2018-06-23T19:03:12.677Z,13.50
2018-06-23T19:08:08.534Z,13.60
2018-06-23T19:15:32.090Z,13.70
2018-06-23T19:18:00.126Z,13.70
2018-06-23T19:20:28.178Z,13.70
2018-06-23T19:22:56.286Z,13.70
2018-06-23T19:25:24.469Z,13.70
2018-06-23T19:27:52.640Z,13.80
2018-06-23T19:30:20.712Z,13.70
2018-06-23T19:32:48.748Z,13.70
2018-06-23T19:35:16.781Z,13.70
2018-06-23T19:37:44.801Z,13.80
2018-06-23T19:40:12.893Z,13.80
2018-06-23T19:42:41.186Z,13.80
2018-06-23T19:45:09.222Z,13.80
2018-06-23T19:47:37.241Z,13.70
2018-06-23T19:50:05.420Z,13.50
2018-06-23T19:52:33.694Z,13.50
2018-06-23T19:55:01.768Z,13.40
2018-06-23T19:57:29.807Z,13.30
2018-06-23T19:59:57.860Z,13.20
2018-06-23T20:02:25.955Z,13.20
2018-06-23T20:04:54.037Z,13.10
2018-06-23T20:07:22.190Z,13.10
2018-06-23T20:09:51.105Z,13.00
2018-06-23T20:12:19.154Z,13.00
2018-06-23T20:14:47.288Z,13.00
2018-06-23T20:17:15.246Z,13.00
2018-06-23T20:19:43.296Z,12.90
2018-06-23T20:22:11.353Z,12.90
2018-06-23T20:24:39.440Z,12.90
2018-06-23T20:27:07.462Z,12.90
2018-06-23T20:32:03.289Z,12.90
2018-06-23T20:36:59.151Z,12.80
2018-06-23T20:41:54.986Z,12.80
2018-06-23T20:44:23.038Z,12.80
2018-06-23T20:46:51.062Z,12.70
2018-06-23T20:49:19.124Z,12.70
2018-06-23T20:51:47.193Z,12.70
2018-06-23T20:54:15.223Z,12.70
2018-06-23T20:56:43.242Z,12.70
2018-06-23T20:59:11.282Z,12.70
2018-06-23T21:04:07.093Z,12.70
2018-06-23T21:06:35.150Z,12.60
2018-06-23T21:09:03.633Z,12.60
2018-06-23T21:11:31.673Z,12.60
2018-06-23T21:13:59.841Z,12.60
2018-06-23T21:16:27.921Z,12.60
2018-06-23T21:18:55.938Z,12.60
2018-06-23T21:21:23.991Z,12.70
2018-06-23T21:23:51.998Z,12.70
2018-06-23T21:28:47.790Z,12.60
2018-06-23T21:31:15.943Z,12.60
2018-06-23T21:33:43.981Z,12.60
2018-06-23T21:36:12.025Z,12.60
2018-06-23T21:38:40.065Z,12.50
2018-06-23T21:41:08.166Z,12.40
2018-06-23T21:43:36.149Z,12.30
2018-06-23T21:46:04.248Z,12.30
2018-06-23T21:48:32.266Z,12.30
2018-06-23T21:51:00.310Z,12.30
2018-06-23T21:53:28.330Z,12.30
2018-06-23T21:55:56.460Z,12.30
2018-06-23T21:58:24.481Z,12.30
2018-06-23T22:00:52.606Z,12.30
2018-06-23T22:03:20.716Z,12.40
2018-06-23T22:05:48.724Z,12.40
2018-06-23T22:08:16.751Z,12.40
2018-06-23T22:10:44.865Z,12.40
2018-06-23T22:13:12.973Z,12.40
2018-06-23T22:15:41.006Z,12.50
2018-06-23T22:18:09.133Z,12.50
2018-06-23T22:20:37.181Z,12.50
2018-06-23T22:23:05.206Z,12.40
2018-06-23T22:25:33.334Z,12.40
2018-06-23T22:28:01.347Z,12.50
2018-06-23T22:32:57.151Z,12.40
2018-06-23T22:35:25.161Z,12.40
2018-06-23T22:37:53.200Z,12.40
2018-06-23T22:40:21.237Z,12.40
2018-06-23T22:42:49.358Z,12.40
2018-06-23T22:45:17.379Z,12.40
2018-06-23T22:47:45.403Z,12.40
2018-06-23T22:52:41.184Z,12.40
2018-06-23T22:55:10.300Z,12.30
2018-06-23T22:57:38.494Z,12.30
2018-06-23T23:00:07.981Z,12.30
2018-06-23T23:02:36.189Z,12.40
2018-06-23T23:05:04.478Z,12.40
2018-06-23T23:10:00.276Z,12.30
2018-06-23T23:12:28.357Z,12.30
2018-06-23T23:14:56.421Z,12.40
2018-06-23T23:17:24.460Z,12.30
2018-06-23T23:19:52.486Z,12.30
2018-06-23T23:22:20.517Z,12.40
2018-06-23T23:24:48.530Z,12.40
2018-06-23T23:29:44.325Z,12.30
2018-06-23T23:32:12.361Z,12.30
2018-06-23T23:34:40.393Z,12.40
2018-06-23T23:37:08.433Z,12.40
2018-06-23T23:39:36.496Z,12.40
2018-06-23T23:42:04.550Z,12.40
2018-06-23T23:44:32.561Z,12.40
2018-06-23T23:47:00.596Z,12.40
2018-06-23T23:49:28.694Z,12.40
2018-06-23T23:51:56.722Z,12.40
2018-06-23T23:54:24.750Z,12.40
2018-06-23T23:56:52.781Z,12.40
2018-06-23T23:59:20.876Z,12.40
